Terminal Aerodrome Forecast
Issued by NWS

Home | Current Version | Previous Version | Text Only | Print | Product List | Glossary On
Versions: 1 2 3 4 5 6 7 8 9 10 11 12 13 14 15 16 17
829
FTUS43 KILX 091131
TAFBMI
TAF
KBMI 091131Z 0912/1012 30014KT 4SM -SHSN BR OVC015
      TEMPO 0912/0916 2SM -SHSN BR OVC008
     FM091600 31016G24KT 6SM -SHSN OVC020
     FM100200 31015KT P6SM BKN025=

USA.gov is the U.S. government's official web portal to all federal, state and local government web resources and services.